sensor_id;sensor_type;location;lat;lon;timestamp;P1;durP1;ratioP1;P2;durP2;ratioP2
21503;SDS011;10913;51.992;9.228;2023-05-07T00:01:01;25.13;;;20.05;;
21503;SDS011;10913;51.992;9.228;2023-05-07T00:03:27;23.75;;;20.50;;
21503;SDS011;10913;51.992;9.228;2023-05-07T00:05:52;23.80;;;20.23;;
21503;SDS011;10913;51.992;9.228;2023-05-07T00:08:18;25.00;;;20.13;;
21503;SDS011;10913;51.992;9.228;2023-05-07T00:10:44;24.13;;;19.30;;
21503;SDS011;10913;51.992;9.228;2023-05-07T00:13:09;21.70;;;18.02;;
21503;SDS011;10913;51.992;9.228;2023-05-07T00:15:35;24.58;;;20.05;;
21503;SDS011;10913;51.992;9.228;2023-05-07T00:18:00;24.20;;;19.45;;
21503;SDS011;10913;51.992;9.228;2023-05-07T00:20:26;26.25;;;20.10;;
21503;SDS011;10913;51.992;9.228;2023-05-07T00:22:51;25.35;;;20.20;;
21503;SDS011;10913;51.992;9.228;2023-05-07T00:25:17;20.60;;;17.60;;
21503;SDS011;10913;51.992;9.228;2023-05-07T00:27:44;25.83;;;20.95;;
21503;SDS011;10913;51.992;9.228;2023-05-07T00:30:10;29.15;;;21.95;;
21503;SDS011;10913;51.992;9.228;2023-05-07T00:32:35;26.58;;;21.20;;
21503;SDS011;10913;51.992;9.228;2023-05-07T00:35:01;26.15;;;21.42;;
21503;SDS011;10913;51.992;9.228;2023-05-07T00:37:27;24.65;;;19.20;;
21503;SDS011;10913;51.992;9.228;2023-05-07T00:39:52;25.80;;;20.50;;
21503;SDS011;10913;51.992;9.228;2023-05-07T00:42:18;23.38;;;20.23;;
21503;SDS011;10913;51.992;9.228;2023-05-07T00:44:43;24.83;;;19.88;;
21503;SDS011;10913;51.992;9.228;2023-05-07T00:47:08;24.55;;;20.70;;
21503;SDS011;10913;51.992;9.228;2023-05-07T00:49:37;28.60;;;23.27;;
21503;SDS011;10913;51.992;9.228;2023-05-07T00:52:05;28.63;;;21.55;;
21503;SDS011;10913;51.992;9.228;2023-05-07T00:54:32;25.27;;;20.02;;
21503;SDS011;10913;51.992;9.228;2023-05-07T00:56:58;28.65;;;22.40;;
21503;SDS011;10913;51.992;9.228;2023-05-07T00:59:24;24.90;;;20.08;;
21503;SDS011;10913;51.992;9.228;2023-05-07T01:01:49;25.98;;;21.33;;
21503;SDS011;10913;51.992;9.228;2023-05-07T01:04:15;27.42;;;21.40;;
21503;SDS011;10913;51.992;9.228;2023-05-07T01:06:40;24.40;;;19.38;;
21503;SDS011;10913;51.992;9.228;2023-05-07T01:09:06;26.40;;;21.92;;
21503;SDS011;10913;51.992;9.228;2023-05-07T01:11:34;26.02;;;21.17;;
21503;SDS011;10913;51.992;9.228;2023-05-07T01:13:59;28.33;;;23.05;;
21503;SDS011;10913;51.992;9.228;2023-05-07T01:16:25;28.00;;;22.42;;
21503;SDS011;10913;51.992;9.228;2023-05-07T01:18:51;28.23;;;21.92;;
21503;SDS011;10913;51.992;9.228;2023-05-07T01:21:17;29.98;;;23.13;;
21503;SDS011;10913;51.992;9.228;2023-05-07T01:23:43;25.30;;;20.05;;
21503;SDS011;10913;51.992;9.228;2023-05-07T01:26:10;28.13;;;22.20;;
21503;SDS011;10913;51.992;9.228;2023-05-07T01:28:35;27.58;;;21.77;;
21503;SDS011;10913;51.992;9.228;2023-05-07T01:31:01;27.50;;;21.85;;
21503;SDS011;10913;51.992;9.228;2023-05-07T01:33:29;29.65;;;23.15;;
21503;SDS011;10913;51.992;9.228;2023-05-07T01:35:58;28.02;;;22.27;;
21503;SDS011;10913;51.992;9.228;2023-05-07T01:38:27;27.92;;;22.02;;
21503;SDS011;10913;51.992;9.228;2023-05-07T01:40:53;26.25;;;21.20;;
21503;SDS011;10913;51.992;9.228;2023-05-07T01:43:19;27.25;;;21.52;;
21503;SDS011;10913;51.992;9.228;2023-05-07T01:45:44;29.50;;;21.88;;
21503;SDS011;10913;51.992;9.228;2023-05-07T01:48:11;28.98;;;22.77;;
21503;SDS011;10913;51.992;9.228;2023-05-07T01:50:39;27.25;;;22.33;;
21503;SDS011;10913;51.992;9.228;2023-05-07T01:53:04;28.23;;;21.95;;
21503;SDS011;10913;51.992;9.228;2023-05-07T01:55:30;27.45;;;21.85;;
21503;SDS011;10913;51.992;9.228;2023-05-07T01:57:55;28.95;;;22.90;;
21503;SDS011;10913;51.992;9.228;2023-05-07T02:00:21;28.60;;;22.95;;
21503;SDS011;10913;51.992;9.228;2023-05-07T02:02:46;27.17;;;21.92;;
21503;SDS011;10913;51.992;9.228;2023-05-07T02:05:11;26.98;;;21.58;;
21503;SDS011;10913;51.992;9.228;2023-05-07T02:07:37;24.23;;;20.45;;
21503;SDS011;10913;51.992;9.228;2023-05-07T02:10:02;25.73;;;20.83;;
21503;SDS011;10913;51.992;9.228;2023-05-07T02:12:28;28.23;;;22.42;;
21503;SDS011;10913;51.992;9.228;2023-05-07T02:14:53;29.02;;;22.33;;
21503;SDS011;10913;51.992;9.228;2023-05-07T02:17:19;28.17;;;22.33;;
21503;SDS011;10913;51.992;9.228;2023-05-07T02:19:44;29.45;;;23.20;;
21503;SDS011;10913;51.992;9.228;2023-05-07T02:22:09;29.70;;;24.20;;
21503;SDS011;10913;51.992;9.228;2023-05-07T02:24:35;28.73;;;23.60;;
21503;SDS011;10913;51.992;9.228;2023-05-07T02:27:00;30.13;;;23.38;;
21503;SDS011;10913;51.992;9.228;2023-05-07T02:29:26;28.17;;;22.77;;
21503;SDS011;10913;51.992;9.228;2023-05-07T02:31:52;25.38;;;21.42;;
21503;SDS011;10913;51.992;9.228;2023-05-07T02:34:18;31.50;;;25.13;;
21503;SDS011;10913;51.992;9.228;2023-05-07T02:36:43;31.48;;;24.05;;
21503;SDS011;10913;51.992;9.228;2023-05-07T02:39:09;29.83;;;22.85;;
21503;SDS011;10913;51.992;9.228;2023-05-07T02:41:34;28.17;;;21.10;;
21503;SDS011;10913;51.992;9.228;2023-05-07T02:44:00;27.98;;;22.35;;
21503;SDS011;10913;51.992;9.228;2023-05-07T02:46:25;29.10;;;23.30;;
21503;SDS011;10913;51.992;9.228;2023-05-07T02:48:50;29.05;;;23.33;;
21503;SDS011;10913;51.992;9.228;2023-05-07T02:51:19;28.95;;;22.83;;
21503;SDS011;10913;51.992;9.228;2023-05-07T02:53:45;29.48;;;22.45;;
21503;SDS011;10913;51.992;9.228;2023-05-07T02:56:11;26.92;;;22.20;;
21503;SDS011;10913;51.992;9.228;2023-05-07T02:58:36;30.77;;;24.45;;
21503;SDS011;10913;51.992;9.228;2023-05-07T03:01:04;30.90;;;24.95;;
21503;SDS011;10913;51.992;9.228;2023-05-07T03:03:30;29.38;;;24.25;;
21503;SDS011;10913;51.992;9.228;2023-05-07T03:05:55;32.92;;;24.67;;
21503;SDS011;10913;51.992;9.228;2023-05-07T03:08:20;33.47;;;26.88;;
21503;SDS011;10913;51.992;9.228;2023-05-07T03:10:46;30.80;;;24.42;;
21503;SDS011;10913;51.992;9.228;2023-05-07T03:13:11;31.98;;;25.25;;
21503;SDS011;10913;51.992;9.228;2023-05-07T03:15:37;32.50;;;24.88;;
21503;SDS011;10913;51.992;9.228;2023-05-07T03:18:02;31.05;;;24.58;;
21503;SDS011;10913;51.992;9.228;2023-05-07T03:20:28;33.65;;;26.23;;
21503;SDS011;10913;51.992;9.228;2023-05-07T03:22:53;32.72;;;24.63;;
21503;SDS011;10913;51.992;9.228;2023-05-07T03:25:18;34.08;;;25.08;;
21503;SDS011;10913;51.992;9.228;2023-05-07T03:27:44;32.88;;;25.80;;
21503;SDS011;10913;51.992;9.228;2023-05-07T03:30:09;31.73;;;24.88;;
21503;SDS011;10913;51.992;9.228;2023-05-07T03:32:36;32.85;;;24.33;;
21503;SDS011;10913;51.992;9.228;2023-05-07T03:35:01;32.80;;;25.75;;
21503;SDS011;10913;51.992;9.228;2023-05-07T03:37:27;30.23;;;22.98;;
21503;SDS011;10913;51.992;9.228;2023-05-07T03:39:52;33.28;;;26.63;;
21503;SDS011;10913;51.992;9.228;2023-05-07T03:42:18;34.30;;;26.10;;
21503;SDS011;10913;51.992;9.228;2023-05-07T03:44:43;33.53;;;25.48;;
21503;SDS011;10913;51.992;9.228;2023-05-07T03:47:09;33.78;;;25.77;;
21503;SDS011;10913;51.992;9.228;2023-05-07T03:49:35;31.23;;;24.42;;
21503;SDS011;10913;51.992;9.228;2023-05-07T03:52:00;33.92;;;26.17;;
21503;SDS011;10913;51.992;9.228;2023-05-07T03:54:26;36.33;;;26.63;;
21503;SDS011;10913;51.992;9.228;2023-05-07T03:56:51;32.72;;;24.58;;
21503;SDS011;10913;51.992;9.228;2023-05-07T03:59:16;34.25;;;25.98;;
21503;SDS011;10913;51.992;9.228;2023-05-07T04:01:42;32.80;;;25.65;;
21503;SDS011;10913;51.992;9.228;2023-05-07T04:04:07;33.92;;;25.98;;
21503;SDS011;10913;51.992;9.228;2023-05-07T04:06:32;36.85;;;26.70;;
21503;SDS011;10913;51.992;9.228;2023-05-07T04:08:58;36.00;;;27.35;;
21503;SDS011;10913;51.992;9.228;2023-05-07T04:11:23;35.83;;;27.88;;
21503;SDS011;10913;51.992;9.228;2023-05-07T04:13:50;40.80;;;28.20;;
21503;SDS011;10913;51.992;9.228;2023-05-07T04:16:15;36.25;;;26.55;;
21503;SDS011;10913;51.992;9.228;2023-05-07T04:18:41;39.33;;;28.27;;
21503;SDS011;10913;51.992;9.228;2023-05-07T04:21:13;35.08;;;26.73;;
21503;SDS011;10913;51.992;9.228;2023-05-07T04:23:39;35.45;;;26.17;;
21503;SDS011;10913;51.992;9.228;2023-05-07T04:26:05;36.30;;;27.17;;
21503;SDS011;10913;51.992;9.228;2023-05-07T04:28:30;34.08;;;24.88;;
21503;SDS011;10913;51.992;9.228;2023-05-07T04:30:56;37.78;;;28.10;;
21503;SDS011;10913;51.992;9.228;2023-05-07T04:33:21;34.35;;;26.95;;
21503;SDS011;10913;51.992;9.228;2023-05-07T04:35:46;36.92;;;27.42;;
21503;SDS011;10913;51.992;9.228;2023-05-07T04:38:12;41.05;;;28.88;;
21503;SDS011;10913;51.992;9.228;2023-05-07T04:40:37;36.60;;;28.25;;
21503;SDS011;10913;51.992;9.228;2023-05-07T04:43:03;35.97;;;26.75;;
21503;SDS011;10913;51.992;9.228;2023-05-07T04:45:29;35.30;;;26.48;;
21503;SDS011;10913;51.992;9.228;2023-05-07T04:47:55;34.35;;;25.83;;
21503;SDS011;10913;51.992;9.228;2023-05-07T04:50:20;34.28;;;25.20;;
21503;SDS011;10913;51.992;9.228;2023-05-07T04:52:48;34.35;;;24.65;;
21503;SDS011;10913;51.992;9.228;2023-05-07T04:55:13;34.78;;;25.15;;
21503;SDS011;10913;51.992;9.228;2023-05-07T04:57:39;33.50;;;25.17;;
21503;SDS011;10913;51.992;9.228;2023-05-07T05:00:06;38.22;;;27.55;;
21503;SDS011;10913;51.992;9.228;2023-05-07T05:02:33;38.38;;;28.02;;
21503;SDS011;10913;51.992;9.228;2023-05-07T05:04:58;40.65;;;28.85;;
21503;SDS011;10913;51.992;9.228;2023-05-07T05:07:24;34.50;;;25.83;;
21503;SDS011;10913;51.992;9.228;2023-05-07T05:09:50;36.33;;;26.85;;
21503;SDS011;10913;51.992;9.228;2023-05-07T05:12:15;36.00;;;27.00;;
21503;SDS011;10913;51.992;9.228;2023-05-07T05:14:40;34.30;;;25.42;;
21503;SDS011;10913;51.992;9.228;2023-05-07T05:17:06;33.67;;;24.90;;
21503;SDS011;10913;51.992;9.228;2023-05-07T05:19:31;36.08;;;26.75;;
21503;SDS011;10913;51.992;9.228;2023-05-07T05:21:57;37.00;;;25.27;;
21503;SDS011;10913;51.992;9.228;2023-05-07T05:24:22;34.17;;;26.38;;
21503;SDS011;10913;51.992;9.228;2023-05-07T05:26:47;31.77;;;24.08;;
21503;SDS011;10913;51.992;9.228;2023-05-07T05:29:13;31.80;;;22.92;;
21503;SDS011;10913;51.992;9.228;2023-05-07T05:31:38;25.77;;;20.08;;
21503;SDS011;10913;51.992;9.228;2023-05-07T05:34:03;30.38;;;21.33;;
21503;SDS011;10913;51.992;9.228;2023-05-07T05:36:29;27.15;;;19.83;;
21503;SDS011;10913;51.992;9.228;2023-05-07T05:38:55;25.42;;;19.65;;
21503;SDS011;10913;51.992;9.228;2023-05-07T05:41:21;26.20;;;19.83;;
21503;SDS011;10913;51.992;9.228;2023-05-07T05:43:46;25.65;;;19.95;;
21503;SDS011;10913;51.992;9.228;2023-05-07T05:46:11;24.00;;;18.38;;
21503;SDS011;10913;51.992;9.228;2023-05-07T05:48:37;25.42;;;18.77;;
21503;SDS011;10913;51.992;9.228;2023-05-07T05:51:02;25.42;;;19.48;;
21503;SDS011;10913;51.992;9.228;2023-05-07T05:53:28;25.13;;;18.65;;
21503;SDS011;10913;51.992;9.228;2023-05-07T05:55:53;24.73;;;18.52;;
21503;SDS011;10913;51.992;9.228;2023-05-07T05:58:18;24.05;;;18.30;;
21503;SDS011;10913;51.992;9.228;2023-05-07T06:00:44;23.55;;;17.80;;
21503;SDS011;10913;51.992;9.228;2023-05-07T06:03:09;22.58;;;17.38;;
21503;SDS011;10913;51.992;9.228;2023-05-07T06:05:35;22.40;;;17.23;;
21503;SDS011;10913;51.992;9.228;2023-05-07T06:08:00;21.67;;;16.60;;
21503;SDS011;10913;51.992;9.228;2023-05-07T06:10:26;22.23;;;16.55;;
21503;SDS011;10913;51.992;9.228;2023-05-07T06:12:52;18.75;;;14.52;;
21503;SDS011;10913;51.992;9.228;2023-05-07T06:15:17;20.90;;;15.90;;
21503;SDS011;10913;51.992;9.228;2023-05-07T06:17:42;20.30;;;15.73;;
21503;SDS011;10913;51.992;9.228;2023-05-07T06:20:08;19.58;;;14.55;;
21503;SDS011;10913;51.992;9.228;2023-05-07T06:22:33;18.00;;;14.20;;
21503;SDS011;10913;51.992;9.228;2023-05-07T06:24:59;16.30;;;13.00;;
21503;SDS011;10913;51.992;9.228;2023-05-07T06:27:24;14.48;;;12.13;;
21503;SDS011;10913;51.992;9.228;2023-05-07T06:29:50;16.27;;;12.75;;
21503;SDS011;10913;51.992;9.228;2023-05-07T06:32:15;14.80;;;11.75;;
21503;SDS011;10913;51.992;9.228;2023-05-07T06:34:42;15.88;;;11.15;;
21503;SDS011;10913;51.992;9.228;2023-05-07T06:37:07;13.35;;;11.07;;
21503;SDS011;10913;51.992;9.228;2023-05-07T06:39:32;13.15;;;10.95;;
21503;SDS011;10913;51.992;9.228;2023-05-07T06:41:59;13.63;;;10.65;;
21503;SDS011;10913;51.992;9.228;2023-05-07T06:44:25;11.73;;;10.18;;
21503;SDS011;10913;51.992;9.228;2023-05-07T06:46:50;12.93;;;10.68;;
21503;SDS011;10913;51.992;9.228;2023-05-07T06:49:15;12.23;;;9.80;;
21503;SDS011;10913;51.992;9.228;2023-05-07T06:51:41;12.00;;;9.93;;
21503;SDS011;10913;51.992;9.228;2023-05-07T06:54:06;11.40;;;9.40;;
21503;SDS011;10913;51.992;9.228;2023-05-07T06:56:32;13.25;;;10.40;;
21503;SDS011;10913;51.992;9.228;2023-05-07T06:58:59;13.35;;;9.93;;
21503;SDS011;10913;51.992;9.228;2023-05-07T07:01:25;12.20;;;9.90;;
21503;SDS011;10913;51.992;9.228;2023-05-07T07:03:50;13.60;;;9.85;;
21503;SDS011;10913;51.992;9.228;2023-05-07T07:06:16;11.35;;;9.50;;
21503;SDS011;10913;51.992;9.228;2023-05-07T07:08:41;11.02;;;9.55;;
21503;SDS011;10913;51.992;9.228;2023-05-07T07:11:08;10.98;;;9.13;;
21503;SDS011;10913;51.992;9.228;2023-05-07T07:13:33;11.02;;;8.93;;
21503;SDS011;10913;51.992;9.228;2023-05-07T07:15:59;10.00;;;8.57;;
21503;SDS011;10913;51.992;9.228;2023-05-07T07:18:25;11.15;;;9.10;;
21503;SDS011;10913;51.992;9.228;2023-05-07T07:20:50;10.73;;;9.23;;
21503;SDS011;10913;51.992;9.228;2023-05-07T07:23:16;13.23;;;10.50;;
21503;SDS011;10913;51.992;9.228;2023-05-07T07:25:41;10.35;;;8.80;;
21503;SDS011;10913;51.992;9.228;2023-05-07T07:28:06;11.93;;;9.38;;
21503;SDS011;10913;51.992;9.228;2023-05-07T07:30:32;10.95;;;9.35;;
21503;SDS011;10913;51.992;9.228;2023-05-07T07:32:57;11.32;;;9.20;;
21503;SDS011;10913;51.992;9.228;2023-05-07T07:35:27;10.68;;;8.95;;
21503;SDS011;10913;51.992;9.228;2023-05-07T07:37:53;11.80;;;9.35;;
21503;SDS011;10913;51.992;9.228;2023-05-07T07:40:19;12.15;;;9.43;;
21503;SDS011;10913;51.992;9.228;2023-05-07T07:42:46;10.65;;;9.32;;
21503;SDS011;10913;51.992;9.228;2023-05-07T07:45:11;11.45;;;9.30;;
21503;SDS011;10913;51.992;9.228;2023-05-07T07:47:37;9.68;;;8.57;;
21503;SDS011;10913;51.992;9.228;2023-05-07T07:50:03;11.43;;;9.30;;
21503;SDS011;10913;51.992;9.228;2023-05-07T07:52:28;10.20;;;9.00;;
21503;SDS011;10913;51.992;9.228;2023-05-07T07:54:53;11.55;;;9.38;;
21503;SDS011;10913;51.992;9.228;2023-05-07T07:57:19;10.73;;;9.13;;
21503;SDS011;10913;51.992;9.228;2023-05-07T07:59:44;11.73;;;9.52;;
21503;SDS011;10913;51.992;9.228;2023-05-07T08:02:10;11.07;;;9.70;;
21503;SDS011;10913;51.992;9.228;2023-05-07T08:04:35;10.38;;;8.25;;
21503;SDS011;10913;51.992;9.228;2023-05-07T08:07:02;9.98;;;8.43;;
21503;SDS011;10913;51.992;9.228;2023-05-07T08:09:27;10.57;;;9.07;;
21503;SDS011;10913;51.992;9.228;2023-05-07T08:11:53;10.57;;;9.07;;
21503;SDS011;10913;51.992;9.228;2023-05-07T08:14:18;11.60;;;9.02;;
21503;SDS011;10913;51.992;9.228;2023-05-07T08:16:43;10.60;;;9.10;;
21503;SDS011;10913;51.992;9.228;2023-05-07T08:19:09;11.27;;;9.27;;
21503;SDS011;10913;51.992;9.228;2023-05-07T08:21:38;13.20;;;9.38;;
21503;SDS011;10913;51.992;9.228;2023-05-07T08:24:04;9.95;;;8.55;;
21503;SDS011;10913;51.992;9.228;2023-05-07T08:26:30;11.45;;;8.32;;
21503;SDS011;10913;51.992;9.228;2023-05-07T08:28:55;10.95;;;8.75;;
21503;SDS011;10913;51.992;9.228;2023-05-07T08:31:20;8.98;;;7.15;;
21503;SDS011;10913;51.992;9.228;2023-05-07T08:33:46;9.32;;;7.65;;
21503;SDS011;10913;51.992;9.228;2023-05-07T08:36:11;8.88;;;7.78;;
21503;SDS011;10913;51.992;9.228;2023-05-07T08:38:37;9.48;;;7.82;;
21503;SDS011;10913;51.992;9.228;2023-05-07T08:41:02;9.43;;;7.28;;
21503;SDS011;10913;51.992;9.228;2023-05-07T08:43:27;8.15;;;7.28;;
21503;SDS011;10913;51.992;9.228;2023-05-07T08:45:56;7.97;;;7.05;;
21503;SDS011;10913;51.992;9.228;2023-05-07T08:48:26;8.40;;;6.97;;
21503;SDS011;10913;51.992;9.228;2023-05-07T08:50:54;7.38;;;6.55;;
21503;SDS011;10913;51.992;9.228;2023-05-07T08:53:20;8.35;;;6.05;;
21503;SDS011;10913;51.992;9.228;2023-05-07T08:55:45;6.88;;;5.97;;
21503;SDS011;10913;51.992;9.228;2023-05-07T08:58:12;6.20;;;5.60;;
21503;SDS011;10913;51.992;9.228;2023-05-07T09:00:37;6.75;;;6.05;;
21503;SDS011;10913;51.992;9.228;2023-05-07T09:03:05;6.10;;;5.50;;
21503;SDS011;10913;51.992;9.228;2023-05-07T09:05:30;6.63;;;5.93;;
21503;SDS011;10913;51.992;9.228;2023-05-07T09:07:58;7.07;;;5.43;;
21503;SDS011;10913;51.992;9.228;2023-05-07T09:10:25;6.22;;;5.60;;
21503;SDS011;10913;51.992;9.228;2023-05-07T09:12:50;6.10;;;5.50;;
21503;SDS011;10913;51.992;9.228;2023-05-07T09:15:16;5.50;;;5.00;;
21503;SDS011;10913;51.992;9.228;2023-05-07T09:17:42;6.05;;;5.40;;
21503;SDS011;10913;51.992;9.228;2023-05-07T09:20:08;6.68;;;5.43;;
21503;SDS011;10913;51.992;9.228;2023-05-07T09:22:37;5.63;;;5.03;;
21503;SDS011;10913;51.992;9.228;2023-05-07T09:25:03;5.75;;;5.15;;
21503;SDS011;10913;51.992;9.228;2023-05-07T09:27:30;6.93;;;4.70;;
21503;SDS011;10913;51.992;9.228;2023-05-07T09:29:55;5.55;;;4.93;;
21503;SDS011;10913;51.992;9.228;2023-05-07T09:32:20;5.32;;;4.82;;
21503;SDS011;10913;51.992;9.228;2023-05-07T09:34:46;6.03;;;5.20;;
21503;SDS011;10913;51.992;9.228;2023-05-07T09:37:12;5.35;;;4.85;;
21503;SDS011;10913;51.992;9.228;2023-05-07T09:39:45;5.80;;;5.20;;
21503;SDS011;10913;51.992;9.228;2023-05-07T09:42:12;5.22;;;4.72;;
21503;SDS011;10913;51.992;9.228;2023-05-07T09:44:40;4.60;;;4.20;;
21503;SDS011;10913;51.992;9.228;2023-05-07T09:47:05;5.30;;;4.63;;
21503;SDS011;10913;51.992;9.228;2023-05-07T09:49:33;6.40;;;5.03;;
21503;SDS011;10913;51.992;9.228;2023-05-07T09:52:01;4.93;;;4.53;;
21503;SDS011;10913;51.992;9.228;2023-05-07T09:54:28;5.38;;;4.88;;
21503;SDS011;10913;51.992;9.228;2023-05-07T09:56:54;5.57;;;5.07;;
21503;SDS011;10913;51.992;9.228;2023-05-07T09:59:21;5.25;;;4.75;;
21503;SDS011;10913;51.992;9.228;2023-05-07T10:01:47;5.28;;;4.78;;
21503;SDS011;10913;51.992;9.228;2023-05-07T10:04:13;5.68;;;5.18;;
21503;SDS011;10913;51.992;9.228;2023-05-07T10:06:39;5.57;;;4.97;;
21503;SDS011;10913;51.992;9.228;2023-05-07T10:09:06;5.22;;;4.60;;
21503;SDS011;10913;51.992;9.228;2023-05-07T10:11:35;5.30;;;4.80;;
21503;SDS011;10913;51.992;9.228;2023-05-07T10:14:02;5.70;;;5.10;;
21503;SDS011;10913;51.992;9.228;2023-05-07T10:16:34;6.53;;;5.40;;
21503;SDS011;10913;51.992;9.228;2023-05-07T10:19:04;5.43;;;4.93;;
21503;SDS011;10913;51.992;9.228;2023-05-07T10:21:31;5.85;;;5.25;;
21503;SDS011;10913;51.992;9.228;2023-05-07T10:24:05;5.65;;;5.10;;
21503;SDS011;10913;51.992;9.228;2023-05-07T10:26:38;6.80;;;5.95;;
21503;SDS011;10913;51.992;9.228;2023-05-07T10:29:10;5.90;;;5.35;;
21503;SDS011;10913;51.992;9.228;2023-05-07T10:34:29;6.25;;;5.30;;
21503;SDS011;10913;51.992;9.228;2023-05-07T10:37:00;4.95;;;4.55;;
21503;SDS011;10913;51.992;9.228;2023-05-07T10:39:25;5.50;;;4.70;;
21503;SDS011;10913;51.992;9.228;2023-05-07T10:41:51;6.57;;;5.50;;
21503;SDS011;10913;51.992;9.228;2023-05-07T10:44:29;6.97;;;5.82;;
21503;SDS011;10913;51.992;9.228;2023-05-07T10:47:08;10.23;;;5.80;;
21503;SDS011;10913;51.992;9.228;2023-05-07T10:54:36;5.43;;;4.93;;
21503;SDS011;10913;51.992;9.228;2023-05-07T10:57:32;6.20;;;5.50;;
21503;SDS011;10913;51.992;9.228;2023-05-07T10:59:55;5.65;;;5.15;;
21503;SDS011;10913;51.992;9.228;2023-05-07T11:02:21;5.55;;;5.05;;
21503;SDS011;10913;51.992;9.228;2023-05-07T11:07:56;6.07;;;5.07;;
21503;SDS011;10913;51.992;9.228;2023-05-07T11:10:26;6.07;;;5.53;;
21503;SDS011;10913;51.992;9.228;2023-05-07T11:39:05;7.28;;;6.40;;
21503;SDS011;10913;51.992;9.228;2023-05-07T11:41:35;7.07;;;5.90;;
21503;SDS011;10913;51.992;9.228;2023-05-07T11:44:01;6.47;;;5.88;;
21503;SDS011;10913;51.992;9.228;2023-05-07T11:46:27;7.38;;;6.68;;
21503;SDS011;10913;51.992;9.228;2023-05-07T11:48:54;7.57;;;6.55;;
21503;SDS011;10913;51.992;9.228;2023-05-07T11:51:20;7.57;;;6.85;;
21503;SDS011;10913;51.992;9.228;2023-05-07T11:53:48;7.72;;;6.88;;
21503;SDS011;10913;51.992;9.228;2023-05-07T11:56:14;7.65;;;6.75;;
21503;SDS011;10913;51.992;9.228;2023-05-07T11:58:41;7.35;;;6.18;;
21503;SDS011;10913;51.992;9.228;2023-05-07T12:01:08;8.57;;;7.03;;
21503;SDS011;10913;51.992;9.228;2023-05-07T12:03:35;8.68;;;7.40;;
21503;SDS011;10913;51.992;9.228;2023-05-07T12:06:07;7.82;;;6.95;;
21503;SDS011;10913;51.992;9.228;2023-05-07T12:08:32;8.15;;;7.00;;
21503;SDS011;10913;51.992;9.228;2023-05-07T12:10:57;7.80;;;7.10;;
21503;SDS011;10913;51.992;9.228;2023-05-07T12:13:23;8.02;;;7.25;;
21503;SDS011;10913;51.992;9.228;2023-05-07T12:15:53;7.80;;;7.03;;
21503;SDS011;10913;51.992;9.228;2023-05-07T12:18:20;8.38;;;7.32;;
21503;SDS011;10913;51.992;9.228;2023-05-07T12:20:46;9.52;;;7.70;;
21503;SDS011;10913;51.992;9.228;2023-05-07T12:23:12;8.38;;;7.57;;
21503;SDS011;10913;51.992;9.228;2023-05-07T12:25:38;7.75;;;7.03;;
21503;SDS011;10913;51.992;9.228;2023-05-07T12:28:05;9.13;;;6.93;;
21503;SDS011;10913;51.992;9.228;2023-05-07T12:30:40;6.75;;;6.05;;
21503;SDS011;10913;51.992;9.228;2023-05-07T12:35:31;8.55;;;7.45;;
21503;SDS011;10913;51.992;9.228;2023-05-07T12:38:01;7.68;;;6.90;;
21503;SDS011;10913;51.992;9.228;2023-05-07T12:40:42;7.63;;;6.82;;
21503;SDS011;10913;51.992;9.228;2023-05-07T12:43:16;8.20;;;7.40;;
21503;SDS011;10913;51.992;9.228;2023-05-07T12:45:42;7.78;;;6.97;;
21503;SDS011;10913;51.992;9.228;2023-05-07T12:48:11;8.88;;;6.97;;
21503;SDS011;10913;51.992;9.228;2023-05-07T12:50:37;8.73;;;7.80;;
21503;SDS011;10913;51.992;9.228;2023-05-07T12:53:03;8.38;;;7.57;;
21503;SDS011;10913;51.992;9.228;2023-05-07T12:55:43;7.65;;;6.95;;
21503;SDS011;10913;51.992;9.228;2023-05-07T12:58:20;9.40;;;7.53;;
21503;SDS011;10913;51.992;9.228;2023-05-07T13:00:50;7.90;;;7.10;;
21503;SDS011;10913;51.992;9.228;2023-05-07T13:03:29;8.07;;;7.25;;
21503;SDS011;10913;51.992;9.228;2023-05-07T13:05:59;7.70;;;6.95;;
21503;SDS011;10913;51.992;9.228;2023-05-07T13:10:53;8.43;;;7.63;;
21503;SDS011;10913;51.992;9.228;2023-05-07T13:13:19;7.95;;;7.15;;
21503;SDS011;10913;51.992;9.228;2023-05-07T13:15:45;7.93;;;7.13;;
21503;SDS011;10913;51.992;9.228;2023-05-07T13:18:11;8.30;;;6.97;;
21503;SDS011;10913;51.992;9.228;2023-05-07T13:20:37;6.82;;;6.22;;
21503;SDS011;10913;51.992;9.228;2023-05-07T13:23:05;7.68;;;6.88;;
21503;SDS011;10913;51.992;9.228;2023-05-07T13:25:31;8.02;;;7.20;;
21503;SDS011;10913;51.992;9.228;2023-05-07T13:27:56;8.93;;;6.80;;
21503;SDS011;10913;51.992;9.228;2023-05-07T13:30:22;8.15;;;6.97;;
21503;SDS011;10913;51.992;9.228;2023-05-07T13:32:48;7.57;;;6.78;;
21503;SDS011;10913;51.992;9.228;2023-05-07T13:35:14;7.07;;;6.38;;
21503;SDS011;10913;51.992;9.228;2023-05-07T13:37:39;8.35;;;7.55;;
21503;SDS011;10913;51.992;9.228;2023-05-07T13:40:05;11.23;;;9.60;;
21503;SDS011;10913;51.992;9.228;2023-05-07T13:42:31;8.30;;;7.32;;
21503;SDS011;10913;51.992;9.228;2023-05-07T13:44:59;7.32;;;6.63;;
21503;SDS011;10913;51.992;9.228;2023-05-07T13:47:25;7.88;;;6.60;;
21503;SDS011;10913;51.992;9.228;2023-05-07T13:49:51;7.50;;;6.80;;
21503;SDS011;10913;51.992;9.228;2023-05-07T13:52:16;7.03;;;6.32;;
21503;SDS011;10913;51.992;9.228;2023-05-07T13:54:42;6.85;;;6.15;;
21503;SDS011;10913;51.992;9.228;2023-05-07T13:57:08;7.07;;;6.38;;
21503;SDS011;10913;51.992;9.228;2023-05-07T13:59:33;7.55;;;6.85;;
21503;SDS011;10913;51.992;9.228;2023-05-07T14:01:59;9.07;;;6.20;;
21503;SDS011;10913;51.992;9.228;2023-05-07T14:04:25;7.47;;;6.75;;
21503;SDS011;10913;51.992;9.228;2023-05-07T14:06:50;7.70;;;6.90;;
21503;SDS011;10913;51.992;9.228;2023-05-07T14:09:16;7.50;;;6.80;;
21503;SDS011;10913;51.992;9.228;2023-05-07T14:11:41;7.80;;;7.00;;
21503;SDS011;10913;51.992;9.228;2023-05-07T14:14:06;8.85;;;7.25;;
21503;SDS011;10913;51.992;9.228;2023-05-07T14:16:32;8.95;;;7.70;;
21503;SDS011;10913;51.992;9.228;2023-05-07T14:18:57;7.35;;;6.65;;
21503;SDS011;10913;51.992;9.228;2023-05-07T14:21:23;8.85;;;7.15;;
21503;SDS011;10913;51.992;9.228;2023-05-07T14:23:48;8.25;;;7.30;;
21503;SDS011;10913;51.992;9.228;2023-05-07T14:26:13;7.70;;;6.80;;
21503;SDS011;10913;51.992;9.228;2023-05-07T14:28:39;8.05;;;7.25;;
21503;SDS011;10913;51.992;9.228;2023-05-07T14:31:05;8.35;;;7.55;;
21503;SDS011;10913;51.992;9.228;2023-05-07T14:33:31;8.40;;;7.60;;
21503;SDS011;10913;51.992;9.228;2023-05-07T14:35:56;8.40;;;7.60;;
21503;SDS011;10913;51.992;9.228;2023-05-07T14:38:22;10.65;;;7.18;;
21503;SDS011;10913;51.992;9.228;2023-05-07T14:40:47;8.27;;;7.07;;
21503;SDS011;10913;51.992;9.228;2023-05-07T14:43:12;8.18;;;7.38;;
21503;SDS011;10913;51.992;9.228;2023-05-07T14:45:38;8.25;;;7.35;;
21503;SDS011;10913;51.992;9.228;2023-05-07T14:48:03;8.68;;;7.78;;
21503;SDS011;10913;51.992;9.228;2023-05-07T14:50:29;8.65;;;7.85;;
21503;SDS011;10913;51.992;9.228;2023-05-07T14:52:54;9.05;;;7.78;;
21503;SDS011;10913;51.992;9.228;2023-05-07T14:55:20;9.38;;;8.38;;
21503;SDS011;10913;51.992;9.228;2023-05-07T14:57:45;9.50;;;8.60;;
21503;SDS011;10913;51.992;9.228;2023-05-07T15:00:11;9.35;;;8.45;;
21503;SDS011;10913;51.992;9.228;2023-05-07T15:02:38;9.75;;;8.75;;
21503;SDS011;10913;51.992;9.228;2023-05-07T15:05:03;9.75;;;8.30;;
21503;SDS011;10913;51.992;9.228;2023-05-07T15:07:29;8.25;;;7.45;;
21503;SDS011;10913;51.992;9.228;2023-05-07T15:09:57;7.80;;;7.10;;